首页
METAR-TAF:

METAR-TAF

机场 :

哥伦比亚, 南卡罗来纳州, 美国

纬度: 33-56-31N, 经度: 081-07-05W, 海拔: 71米

当前天气观测

该预报发布于42分钟前的18:56 UTC
静风
温度 32°C
湿度 46%
气压 1023 hPa
能見度: 16.1公里
少量云层高于3900英尺
少量云层高于5000英尺
散云层高于6000英尺

METAR: KCAE 231856Z 00000KT 10SM FEW039 FEW050 SCT060 32/19 A3021 RMK AO2 SLP226 T03170194

时间: 15:38 (19:38 UTC)

预报

该预报发布于1小时和58分钟前的17:40 UTC
预报有效从23日的 18点(UTC)到 24日的 18点(UTC)
风速6节,风向南转西南
能見度: 10公里
散云层高于4000英尺
从 24日的 0100点(UTC)
风速3节,风向多变
能見度: 10公里
散云层高于4000英尺
从 24日的 0500点(UTC)
风速3节,风向多变
能見度: 10公里
散云层高于1000英尺
多云层高于2500英尺
从 24日的 0800点(UTC)
风速3节,风向多变
能見度: 9.7公里
散云层高于600英尺
多云层高于1000英尺
轻雾
从 24日的 1500点(UTC)
风速8节,风向西
能見度: 10公里
散云层高于1500英尺
多云层高于3500英尺

TAF: KCAE 231740Z 2318/2418 21006KT P6SM SCT040 FM240100 VRB03KT P6SM SCT040 FM240500 VRB03KT P6SM SCT010 BKN025 FM240800 VRB03KT 6SM BR SCT006 BKN010 FM241500 27008KT P6SM SCT015 BKN035

超过4000个机场的气象观测和天气预报(METAR&TAF报告)。

可查询的气象台以黄色和红色小点在地图上表示。

将鼠标移到小点上方,可查看气象台名称。

然后点击查看天气观测和预报。

如需切换地图:点击带黑十字的绿色按钮放大地图;点击带横线的绿色按钮缩小地图;或者点击绿色箭头查看邻近地区的地图。


METAR-TAF: